Soria, Spain
Current Conditions -  °F | °C
As of 5:00 PM on Thursday 23 Oct 2014 (Local Time) from LELO Reporting Station
Clear Clear  
Wind Chill: 79°   Ceiling: Unl
Heat Index: 79°   Visibility: 6mi
Dew Point: 23°   Wind: 9mph
Humidity: 13%   Direction: 290°WNW
Pressure: 30.18"   Gusts: NA
Location:  41.76°N, 2.46°W
Report Text: LELO 231500Z 29008KT 240V340 CAVOK 26/M05 Q1022
Loading
Personal Weather Stations






























Interactive Weather Map
Tropical Storm Tracking
New forecast layout! Learn more

10-Day Weather Forecast

Advertisements
Track Severe Weather on mobile